Time;durP1;ratioP1;P1;durP2;ratioP2;P2;SDS_P1;SDS_P2;PMS_P1;PMS_P2;Temp;Humidity;BMP_temperature;BMP_pressure;BME280_temperature;BME280_humidity;BME280_pressure;Samples;Min_cycle;Max_cycle;Signal;HPM_P1;HPM_P2
2022/10/05 00:01:21;;;;;;;16.75;9.23;;;;;;;11.36;100.00;100609.19;5012960;28;20037;-63
2022/10/05 00:03:47;;;;;;;14.13;8.98;;;;;;;11.42;100.00;100610.78;5004127;28;20021;-63
2022/10/05 00:06:13;;;;;;;12.10;8.27;;;;;;;11.43;100.00;100615.22;5032467;28;20536;-62
2022/10/05 00:08:38;;;;;;;13.88;8.25;;;;;;;11.40;100.00;100607.31;5031792;28;20092;-62
2022/10/05 00:11:10;;;;;;;12.20;7.50;;;;;;;11.41;100.00;100609.94;5032323;28;20108;-62
2022/10/05 00:13:35;;;;;;;10.70;7.15;;;;;;;11.36;100.00;100597.66;5014466;28;20755;-62
2022/10/05 00:16:13;;;;;;;10.40;7.07;;;;;;;11.29;100.00;100610.25;5032698;28;20048;-62
2022/10/05 00:18:40;;;;;;;10.20;6.00;;;;;;;11.17;100.00;100613.22;5032259;28;20083;-63
2022/10/05 00:21:18;;;;;;;10.93;5.95;;;;;;;11.11;100.00;100607.19;5032098;28;20025;-62
2022/10/05 00:23:43;;;;;;;9.90;5.53;;;;;;;11.04;100.00;100610.91;5031648;28;20022;-62
2022/10/05 00:26:15;;;;;;;10.07;5.72;;;;;;;11.02;100.00;100607.44;5031876;28;20060;-63
2022/10/05 00:28:40;;;;;;;9.35;5.53;;;;;;;11.01;100.00;100610.97;5031239;28;20021;-63
2022/10/05 00:31:16;;;;;;;10.07;6.28;;;;;;;10.99;100.00;100612.84;5031118;28;20043;-63
2022/10/05 00:33:42;;;;;;;9.30;5.90;;;;;;;10.96;100.00;100608.44;5031195;28;20033;-63
2022/10/05 00:36:08;;;;;;;13.43;6.53;;;;;;;10.94;100.00;100620.06;5031106;28;20079;-63
2022/10/05 00:38:33;;;;;;;8.60;5.50;;;;;;;10.91;100.00;100620.09;5031225;28;20036;-63
2022/10/05 00:41:31;;;;;;;10.70;6.32;;;;;;;10.87;100.00;100613.13;5030905;28;20397;-63
2022/10/05 00:44:09;;;;;;;9.07;5.22;;;;;;;10.86;100.00;100622.00;5018307;28;20368;-63
2022/10/05 00:46:56;;;;;;;10.65;6.07;;;;;;;10.87;100.00;100615.78;5031487;28;20041;-63
2022/10/05 00:49:57;;;;;;;11.98;5.40;;;;;;;10.86;100.00;100611.34;5031931;28;20033;-63
2022/10/05 00:52:52;;;;;;;10.55;5.88;;;;;;;10.93;100.00;100615.63;5036302;28;20049;-62
2022/10/05 00:55:47;;;;;;;10.10;5.63;;;;;;;11.03;100.00;100620.69;5027735;28;20068;-63
2022/10/05 00:58:33;;;;;;;8.38;5.55;;;;;;;11.08;100.00;100610.81;5014162;28;20140;-63
2022/10/05 01:01:16;;;;;;;8.90;5.95;;;;;;;11.12;100.00;100617.78;5030283;28;20483;-63
2022/10/05 01:04:05;;;;;;;11.38;6.97;;;;;;;11.17;100.00;100615.03;5028773;28;20021;-63
2022/10/05 01:06:59;;;;;;;8.45;5.78;;;;;;;11.19;100.00;100611.41;5050949;28;20029;-63
2022/10/05 01:10:03;;;;;;;13.70;7.37;;;;;;;11.18;100.00;100607.00;5051227;28;20104;-63
2022/10/05 01:12:38;;;;;;;9.55;5.75;;;;;;;11.20;100.00;100610.47;5002313;28;20280;-63
2022/10/05 01:15:43;;;;;;;10.82;6.05;;;;;;;11.16;100.00;100605.28;5031207;28;20030;-63
2022/10/05 01:18:39;;;;;;;10.90;6.20;;;;;;;11.12;100.00;100598.31;5030939;28;20048;-63
2022/10/05 01:21:09;;;;;;;11.10;6.30;;;;;;;11.15;100.00;100600.88;5030880;28;20041;-63
2022/10/05 01:24:07;;;;;;;11.90;6.32;;;;;;;11.09;100.00;100601.00;5030878;28;20025;-63
2022/10/05 01:26:47;;;;;;;11.57;5.40;;;;;;;11.03;100.00;100603.84;5030783;28;20504;-62
2022/10/05 01:29:27;;;;;;;11.93;6.22;;;;;;;11.00;100.00;100598.59;5030771;28;20037;-63
2022/10/05 01:32:04;;;;;;;14.63;6.07;;;;;;;10.98;100.00;100595.09;5030079;28;20105;-63
2022/10/05 01:34:44;;;;;;;9.80;5.90;;;;;;;10.89;100.00;100580.22;5010826;28;20111;-63
2022/10/05 01:37:27;;;;;;;9.27;6.20;;;;;;;10.95;100.00;100595.19;5011210;28;20025;-63
2022/10/05 01:40:03;;;;;;;;;;;;;;;10.95;100.00;100595.19;5011611;28;20038;-62
2022/10/05 01:42:31;;;;;;;11.25;5.65;;;;;;;10.90;100.00;100587.31;5011586;28;19915;-63
2022/10/05 01:45:06;;;;;;;9.95;6.20;;;;;;;10.90;100.00;100589.97;5011442;28;20465;-62
2022/10/05 01:47:40;;;;;;;11.13;6.45;;;;;;;10.92;100.00;100592.59;5011354;28;20460;-63
2022/10/05 01:50:27;;;;;;;10.48;6.07;;;;;;;10.90;100.00;100591.75;5011126;28;20026;-62
2022/10/05 01:52:58;;;;;;;10.18;5.78;;;;;;;10.88;100.00;100596.22;4991656;28;20091;-63
2022/10/05 01:55:47;;;;;;;14.60;6.30;;;;;;;10.81;100.00;100592.00;5008083;28;20397;-63
2022/10/05 01:58:30;;;;;;;12.15;6.80;;;;;;;10.76;100.00;100593.88;5010753;28;20030;-62
2022/10/05 02:01:37;;;;;;;11.00;6.57;;;;;;;10.77;100.00;100596.50;5010009;28;20113;-63
2022/10/05 02:04:30;;;;;;;8.77;5.70;;;;;;;10.74;100.00;100590.38;5021374;28;20021;-64
2022/10/05 02:06:57;;;;;;;8.27;6.10;;;;;;;10.70;100.00;100591.34;5029576;28;20039;-63
2022/10/05 02:09:25;;;;;;;11.40;5.85;;;;;;;10.69;100.00;100594.94;5029692;28;20033;-63
2022/10/05 02:12:01;;;;;;;11.45;6.18;;;;;;;10.66;100.00;100598.53;5029554;28;20033;-63
2022/10/05 02:14:34;;;;;;;9.65;5.22;;;;;;;10.66;100.00;100597.69;5029949;28;20575;-63
2022/10/05 02:17:07;;;;;;;15.15;7.25;;;;;;;10.63;100.00;100596.84;5028220;28;20037;-63
2022/10/05 02:19:41;;;;;;;9.30;5.53;;;;;;;10.59;100.00;100592.47;5030631;28;20025;-63
2022/10/05 02:22:16;;;;;;;8.63;5.38;;;;;;;10.60;100.00;100610.22;5030689;28;20029;-62
2022/10/05 02:24:49;;;;;;;10.75;4.93;;;;;;;10.58;100.00;100601.38;5019494;28;20811;-62
2022/10/05 02:27:20;;;;;;;31.38;7.18;;;;;;;10.56;100.00;100592.56;5010929;28;20390;-63
2022/10/05 02:29:49;;;;;;;13.80;5.47;;;;;;;10.53;100.00;100602.38;5010726;28;20661;-63
2022/10/05 02:32:22;;;;;;;9.85;5.32;;;;;;;10.52;100.00;100606.84;5014236;28;20036;-62
2022/10/05 02:34:48;;;;;;;14.35;4.78;;;;;;;10.54;100.00;100605.00;5014561;28;20568;-62
2022/10/05 02:37:49;;;;;;;7.13;4.18;;;;;;;10.51;100.00;100607.75;5014447;28;20091;-62
2022/10/05 02:40:39;;;;;;;15.55;6.38;;;;;;;10.47;100.00;100608.75;5014375;28;20045;-62
2022/10/05 02:43:16;;;;;;;11.95;5.07;;;;;;;10.41;100.00;100600.88;5014268;28;20117;-62
2022/10/05 02:45:49;;;;;;;8.27;5.05;;;;;;;10.41;100.00;100603.53;5031327;28;20031;-63
2022/10/05 02:48:47;;;;;;;8.10;5.53;;;;;;;10.42;100.00;100609.75;5033613;28;20808;-62
2022/10/05 02:51:27;;;;;;;7.90;5.43;;;;;;;10.40;100.00;100596.50;5029399;28;20040;-63
2022/10/05 02:54:15;;;;;;;9.63;5.60;;;;;;;10.29;100.00;100587.88;5049412;28;20053;-62
2022/10/05 02:57:36;;;;;;;7.10;5.30;;;;;;;10.32;100.00;100597.56;5033278;28;20090;-62
2022/10/05 03:00:07;;;;;;;7.38;5.30;;;;;;;10.30;100.00;100588.75;4952491;29;20038;-63
2022/10/05 03:02:45;;;;;;;8.15;5.35;;;;;;;10.30;100.00;100586.97;4951193;29;20070;-63
2022/10/05 03:05:23;;;;;;;7.25;5.22;;;;;;;10.30;100.00;100586.97;4998706;28;20048;-63
2022/10/05 03:08:17;;;;;;;9.52;6.35;;;;;;;10.26;100.00;100587.06;5032230;28;20029;-63
2022/10/05 03:11:21;;;;;;;9.05;5.63;;;;;;;10.17;100.00;100580.19;5024492;28;20518;-63
2022/10/05 03:14:02;;;;;;;9.68;6.03;;;;;;;10.16;100.00;100575.78;5046287;28;20392;-63
2022/10/05 03:16:43;;;;;;;10.23;5.57;;;;;;;10.20;100.00;100571.25;5052498;28;20361;-63
2022/10/05 03:19:11;;;;;;;10.07;6.30;;;;;;;10.24;100.00;100573.81;5053229;28;20029;-63
2022/10/05 03:21:52;;;;;;;8.20;5.18;;;;;;;10.34;100.00;100564.72;5053548;28;20035;-63
2022/10/05 03:24:36;;;;;;;12.38;7.03;;;;;;;10.47;100.00;100566.19;5045292;28;20022;-63
2022/10/05 03:27:01;;;;;;;;;;;;;;;10.60;100.00;100566.75;5033725;28;20035;-63
2022/10/05 03:29:32;;;;;;;17.85;7.65;;;;;;;10.67;100.00;100564.84;5033465;28;20295;-63
2022/10/05 03:32:29;;;;;;;12.55;6.90;;;;;;;10.69;100.00;100566.56;5033336;28;20026;-63
2022/10/05 03:35:49;;;;;;;11.88;6.10;;;;;;;10.73;100.00;100557.56;5032860;28;20029;-63
2022/10/05 03:38:23;;;;;;;12.80;6.13;;;;;;;10.73;100.00;100559.34;5001477;28;20499;-63
2022/10/05 03:41:16;;;;;;;16.42;6.68;;;;;;;10.75;100.00;100552.22;5033240;28;20041;-63
2022/10/05 03:44:00;;;;;;;9.80;6.38;;;;;;;10.73;100.00;100551.38;5032200;28;20021;-63
2022/10/05 03:46:53;;;;;;;12.82;5.97;;;;;;;10.70;100.00;100541.69;5033127;28;20038;-62
2022/10/05 03:50:10;;;;;;;9.95;5.47;;;;;;;10.66;100.00;100549.78;5032988;28;20401;-63
2022/10/05 03:52:41;;;;;;;12.75;5.97;;;;;;;10.59;100.00;100555.25;4987227;28;20485;-62
2022/10/05 03:55:18;;;;;;;20.10;6.30;;;;;;;10.56;100.00;100544.69;5027671;28;20034;-63
2022/10/05 03:57:46;;;;;;;13.68;6.10;;;;;;;10.55;100.00;100537.63;5032862;28;20076;-63
2022/10/05 04:00:22;;;;;;;18.55;5.93;;;;;;;10.48;100.00;100541.34;5032903;28;20087;-63
2022/10/05 04:03:11;;;;;;;11.57;5.93;;;;;;;10.47;100.00;100539.59;5033319;28;20017;-63
2022/10/05 04:05:46;;;;;;;10.65;5.93;;;;;;;10.47;100.00;100533.41;5052682;28;20032;-63
2022/10/05 04:08:44;;;;;;;17.40;6.22;;;;;;;10.21;100.00;100488.78;5045895;28;20064;-63
2022/10/05 04:11:19;;;;;;;12.15;5.95;;;;;;;10.42;100.00;100533.50;5018306;28;20056;-63
2022/10/05 04:13:56;;;;;;;18.75;6.47;;;;;;;10.49;100.00;100537.75;5032641;28;20555;-63
2022/10/05 04:16:27;;;;;;;10.38;5.60;;;;;;;10.45;100.00;100536.09;5032790;28;20030;-62
2022/10/05 04:19:07;;;;;;;13.95;5.57;;;;;;;10.43;100.00;100537.91;5032399;28;20040;-62
2022/10/05 04:21:56;;;;;;;23.15;8.27;;;;;;;10.40;100.00;100543.31;5040723;28;20017;-63
2022/10/05 04:24:38;;;;;;;9.80;5.05;;;;;;;10.40;100.00;100555.72;5043541;28;20512;-63
2022/10/05 04:27:14;;;;;;;10.43;5.43;;;;;;;10.32;100.00;100550.59;5032581;28;20064;-63
2022/10/05 04:29:42;;;;;;;9.02;5.00;;;;;;;10.27;100.00;100551.59;5032371;28;20057;-63
2022/10/05 04:32:21;;;;;;;15.00;5.45;;;;;;;10.22;100.00;100549.03;5032000;28;20523;-63
2022/10/05 04:35:11;;;;;;;14.35;5.40;;;;;;;10.19;100.00;100543.81;5032191;28;20532;-63
2022/10/05 04:38:01;;;;;;;12.57;5.80;;;;;;;10.19;100.00;100548.25;5032059;28;20033;-63
2022/10/05 04:40:42;;;;;;;15.07;5.53;;;;;;;10.23;100.00;100544.63;5031645;28;20018;-63
2022/10/05 04:43:16;;;;;;;9.68;5.68;;;;;;;10.20;100.00;100542.88;5042083;28;20032;-63
2022/10/05 04:46:03;;;;;;;14.70;6.75;;;;;;;10.23;100.00;100540.16;5052220;28;20033;-63
2022/10/05 04:48:43;;;;;;;10.45;5.60;;;;;;;10.23;100.00;100542.81;5051656;28;20032;-63
2022/10/05 04:51:27;;;;;;;9.38;5.60;;;;;;;10.17;100.00;100542.97;5051641;28;20030;-62
2022/10/05 04:54:21;;;;;;;10.63;6.20;;;;;;;10.12;100.00;100557.25;5041427;28;20084;-62
2022/10/05 04:57:11;;;;;;;12.63;5.63;;;;;;;10.05;100.00;100559.13;5031893;28;20108;-63
2022/10/05 05:00:07;;;;;;;10.10;5.70;;;;;;;10.01;100.00;100564.56;5031895;28;20029;-62
2022/10/05 05:02:54;;;;;;;11.02;5.25;;;;;;;9.97;100.00;100566.41;5031512;28;20025;-63
2022/10/05 05:05:33;;;;;;;9.23;5.65;;;;;;;10.01;100.00;100560.13;5011877;28;20041;-63
2022/10/05 05:08:40;;;;;;;30.90;7.05;;;;;;;10.01;100.00;100562.78;5047488;28;20361;-63
2022/10/05 05:11:24;;;;;;;12.48;6.43;;;;;;;10.05;100.00;100564.44;5051326;28;20112;-62
2022/10/05 05:14:02;;;;;;;9.55;4.93;;;;;;;10.09;100.00;100557.31;5051301;28;20028;-62
2022/10/05 05:16:40;;;;;;;16.15;7.85;;;;;;;10.13;100.00;100565.19;5051436;28;20108;-62
2022/10/05 05:19:26;;;;;;;9.88;5.60;;;;;;;10.16;100.00;100564.25;5051444;28;20186;-62
2022/10/05 05:22:18;;;;;;;15.90;5.32;;;;;;;10.17;100.00;100576.63;5051273;28;20021;-62
2022/10/05 05:25:03;;;;;;;9.50;5.85;;;;;;;10.18;100.00;100573.94;5039567;28;20079;-63
2022/10/05 05:27:46;;;;;;;13.57;5.90;;;;;;;10.22;100.00;100580.06;5031300;28;20100;-62
2022/10/05 05:30:23;;;;;;;10.20;5.53;;;;;;;10.24;100.00;100581.81;5031064;28;20033;-62
2022/10/05 05:33:12;;;;;;;12.88;5.45;;;;;;;10.26;100.00;100587.94;5031249;28;20052;-62
2022/10/05 05:35:56;;;;;;;15.02;6.53;;;;;;;10.32;100.00;100589.59;5031183;28;20029;-62
2022/10/05 05:38:21;;;;;;;;;;;;;;;10.34;100.00;100591.31;5031851;28;20032;-62
2022/10/05 05:41:02;;;;;;;11.45;5.97;;;;;;;10.39;100.00;100599.19;5031082;28;19909;-63
2022/10/05 05:43:48;;;;;;;10.82;5.93;;;;;;;10.45;100.00;100599.03;5031072;28;20065;-62
2022/10/05 05:46:38;;;;;;;14.90;6.60;;;;;;;10.47;100.00;100598.09;5030017;28;20061;-62
2022/10/05 05:49:17;;;;;;;11.50;6.50;;;;;;;10.50;100.00;100595.38;5028633;28;20516;-63
2022/10/05 05:51:48;;;;;;;12.27;6.13;;;;;;;10.66;100.00;100597.69;5021196;28;20472;-63
2022/10/05 05:54:23;;;;;;;11.55;6.65;;;;;;;10.68;100.00;100594.06;5008149;28;20129;-62
2022/10/05 05:57:07;;;;;;;12.82;7.00;;;;;;;10.70;100.00;100596.69;5010475;28;20350;-63
2022/10/05 05:59:50;;;;;;;13.85;7.65;;;;;;;10.74;100.00;100606.34;5010263;28;20026;-62
2022/10/05 06:02:21;;;;;;;10.45;7.15;;;;;;;10.76;100.00;100608.03;5004166;28;20426;-63
2022/10/05 06:04:53;;;;;;;14.23;7.30;;;;;;;10.84;100.00;100606.06;5025002;28;20049;-63
2022/10/05 06:07:23;;;;;;;16.30;8.50;;;;;;;10.96;100.00;100607.56;5003079;28;20038;-63
2022/10/05 06:10:25;;;;;;;17.42;8.82;;;;;;;11.05;100.00;100608.22;4995214;28;20034;-63
2022/10/05 06:12:53;;;;;;;18.48;8.63;;;;;;;11.09;100.00;100614.31;4995575;28;20030;-62
2022/10/05 06:15:34;;;;;;;24.95;10.75;;;;;;;11.14;100.00;100617.75;4995334;28;20022;-63
2022/10/05 06:18:12;;;;;;;19.63;10.05;;;;;;;11.21;100.00;100620.22;4999597;28;20034;-63
2022/10/05 06:20:44;;;;;;;28.90;13.45;;;;;;;11.30;100.00;100627.13;5006316;28;20037;-63
2022/10/05 06:23:19;;;;;;;38.65;12.50;;;;;;;11.41;100.00;100633.03;5002312;28;20048;-62
2022/10/05 06:26:09;;;;;;;31.55;11.90;;;;;;;11.57;100.00;100619.25;5009128;28;20022;-62
2022/10/05 06:28:35;;;;;;;27.88;11.95;;;;;;;11.68;100.00;100627.88;4995247;28;20031;-62
2022/10/05 06:31:19;;;;;;;22.13;8.85;;;;;;;11.77;100.00;100626.75;5001307;28;20026;-63
2022/10/05 06:33:52;;;;;;;17.13;8.57;;;;;;;11.78;100.00;100628.47;4998977;28;20022;-63
2022/10/05 06:36:36;;;;;;;;;;;;;;;11.93;100.00;100632.53;5002944;28;20038;-62
2022/10/05 06:39:23;;;;;;;26.27;7.95;;;;;;;12.02;100.00;100637.59;5007010;28;19915;-63
2022/10/05 06:42:16;;;;;;;20.73;8.35;;;;;;;12.10;100.00;100628.47;5002088;28;20040;-63
2022/10/05 06:44:47;;;;;;;13.20;7.47;;;;;;;12.03;100.00;100597.56;5001403;28;20026;-62
2022/10/05 06:47:30;;;;;;;18.73;8.10;;;;;;;12.56;100.00;100636.84;5003985;28;20670;-62
2022/10/05 06:50:20;;;;;;;15.73;8.73;;;;;;;12.79;100.00;100638.78;4998173;28;20033;-63
2022/10/05 06:53:04;;;;;;;17.35;8.18;;;;;;;12.92;100.00;100643.69;5015877;28;20054;-63
2022/10/05 06:55:50;;;;;;;16.13;7.95;;;;;;;12.92;100.00;100646.34;5032710;28;20056;-63
2022/10/05 06:58:45;;;;;;;14.07;6.80;;;;;;;12.90;100.00;100652.66;5022537;28;20046;-62
2022/10/05 07:01:20;;;;;;;11.77;7.10;;;;;;;12.85;100.00;100646.63;5026307;28;20523;-63
2022/10/05 07:03:53;;;;;;;12.48;7.07;;;;;;;12.88;100.00;100647.38;5029723;28;20030;-63
2022/10/05 07:06:28;;;;;;;12.50;7.70;;;;;;;12.89;100.00;100646.47;5020640;28;20025;-62
2022/10/05 07:09:13;;;;;;;12.90;6.70;;;;;;;13.00;100.00;100646.09;5017099;28;20034;-63
2022/10/05 07:12:07;;;;;;;12.60;6.85;;;;;;;13.23;100.00;100641.78;5016874;28;20034;-63
2022/10/05 07:14:53;;;;;;;12.82;7.00;;;;;;;13.36;100.00;100644.06;5016039;28;20032;-63
2022/10/05 07:17:29;;;;;;;10.93;5.85;;;;;;;13.48;100.00;100638.28;5025122;28;20029;-62
2022/10/05 07:19:57;;;;;;;12.77;6.38;;;;;;;13.70;100.00;100633.94;5019282;28;20026;-62
2022/10/05 07:22:37;;;;;;;11.23;6.75;;;;;;;13.95;100.00;100637.50;5019415;28;20409;-63
2022/10/05 07:25:12;;;;;;;11.93;7.43;;;;;;;14.29;100.00;100635.34;5023659;28;20432;-62
2022/10/05 07:27:48;;;;;;;14.52;7.43;;;;;;;14.52;100.00;100646.91;5018668;28;20029;-62
2022/10/05 07:30:14;;;;;;;11.60;6.05;;;;;;;14.58;100.00;100645.78;5015107;28;20410;-62
2022/10/05 07:32:55;;;;;;;11.63;6.55;;;;;;;14.55;100.00;100645.06;5019007;28;20029;-63
2022/10/05 07:38:41;;;;;;;12.38;6.90;;;;;;;15.07;100.00;100642.94;5016745;28;20095;-63
2022/10/05 07:41:18;;;;;;;10.48;6.78;;;;;;;15.56;100.00;100639.97;5020909;28;20022;-63
2022/10/05 07:44:17;;;;;;;12.30;7.45;;;;;;;15.96;100.00;100639.09;5018890;28;20431;-63
2022/10/05 07:46:52;;;;;;;14.10;7.90;;;;;;;16.53;98.80;100640.94;5015306;28;20080;-63
2022/10/05 07:49:29;;;;;;;11.98;8.23;;;;;;;16.72;93.56;100637.31;5018378;28;20033;-63
2022/10/05 07:51:58;;;;;;;12.63;6.75;;;;;;;16.94;93.64;100637.16;5014161;28;20576;-62
2022/10/05 07:54:37;;;;;;;12.02;6.55;;;;;;;17.79;92.01;100639.97;5015520;28;20144;-63
2022/10/05 07:57:19;;;;;;;11.38;7.15;;;;;;;19.42;88.24;100630.88;5014921;28;20038;-63
2022/10/05 08:00:10;;;;;;;16.92;7.88;;;;;;;21.28;77.55;100633.47;5017820;28;20026;-63
2022/10/05 08:02:48;;;;;;;11.32;6.65;;;;;;;22.19;68.01;100596.38;5013530;28;20040;-63
2022/10/05 08:05:27;;;;;;;8.55;5.40;;;;;;;23.03;62.93;100638.19;5017045;28;20084;-63
2022/10/05 08:08:10;;;;;;;9.88;5.82;;;;;;;23.42;59.34;100627.94;5016492;28;20025;-63
2022/10/05 08:10:45;;;;;;;10.93;4.95;;;;;;;23.77;58.33;100630.69;5014204;28;20057;-63
2022/10/05 08:13:33;;;;;;;8.77;5.00;;;;;;;24.21;56.48;100627.22;5016432;28;20617;-63
2022/10/05 08:16:11;;;;;;;8.77;5.18;;;;;;;24.48;54.33;100627.78;5015237;28;20049;-63
2022/10/05 08:19:07;;;;;;;7.07;4.65;;;;;;;24.64;53.77;100625.53;5018670;28;20136;-64
2022/10/05 08:21:40;;;;;;;7.72;4.80;;;;;;;24.72;53.87;100630.38;5012841;28;20922;-63
2022/10/05 08:24:17;;;;;;;10.60;5.47;;;;;;;24.45;53.92;100622.56;5021044;28;20079;-63
2022/10/05 08:27:11;;;;;;;10.20;4.97;;;;;;;24.19;54.46;100624.63;5015666;28;20038;-62
2022/10/05 08:29:40;;;;;;;7.93;4.88;;;;;;;24.14;55.32;100620.53;5010790;28;20041;-63
2022/10/05 08:32:13;;;;;;;9.68;5.50;;;;;;;24.25;54.74;100623.31;5022162;28;20521;-63
2022/10/05 08:34:41;;;;;;;8.05;5.30;;;;;;;24.28;56.19;100620.31;5017107;28;20026;-63
2022/10/05 08:37:06;;;;;;;6.70;4.30;;;;;;;24.22;56.08;100615.34;5014135;28;20036;-64
2022/10/05 08:39:46;;;;;;;8.55;5.20;;;;;;;24.31;56.42;100614.63;5018278;28;20030;-63
2022/10/05 08:42:38;;;;;;;9.55;4.97;;;;;;;24.31;55.50;100607.34;5015063;28;20112;-63
2022/10/05 08:45:40;;;;;;;9.77;4.85;;;;;;;24.42;56.95;100609.19;5012300;28;20029;-63
2022/10/05 08:48:36;;;;;;;9.13;4.95;;;;;;;24.54;56.60;100600.94;5014949;28;20401;-63
2022/10/05 08:51:11;;;;;;;7.43;4.82;;;;;;;24.69;56.97;100607.03;5000578;28;20116;-64
2022/10/05 08:53:54;;;;;;;5.65;4.45;;;;;;;24.62;57.76;100608.47;4998730;28;20426;-63
2022/10/05 08:56:42;;;;;;;12.98;4.57;;;;;;;24.74;56.75;100602.06;4997051;28;20382;-63
2022/10/05 08:59:40;;;;;;;7.70;4.55;;;;;;;24.86;57.63;100606.47;4994548;28;20123;-63
2022/10/05 09:02:18;;;;;;;9.15;4.95;;;;;;;24.92;56.43;100600.56;4997212;28;20026;-63
2022/10/05 09:04:59;;;;;;;7.35;4.72;;;;;;;25.03;56.87;100597.81;4998151;28;20374;-63
2022/10/05 09:07:58;;;;;;;6.50;4.10;;;;;;;25.00;57.48;100589.03;4998380;28;20033;-63
2022/10/05 09:10:30;;;;;;;6.07;3.80;;;;;;;24.99;56.61;100585.44;4989546;28;20042;-64
2022/10/05 09:12:58;;;;;;;5.75;3.58;;;;;;;25.40;56.33;100584.72;4994665;28;20062;-64
2022/10/05 09:15:48;;;;;;;6.75;4.43;;;;;;;25.77;55.36;100578.72;4995268;28;20365;-63
2022/10/05 09:18:52;;;;;;;5.70;3.40;;;;;;;25.87;53.89;100579.66;4994156;28;20033;-64
2022/10/05 09:21:55;;;;;;;7.38;3.85;;;;;;;25.93;53.49;100584.56;5002120;28;20096;-64
2022/10/05 09:24:57;;;;;;;4.85;3.00;;;;;;;25.91;53.16;100581.09;4993441;28;20045;-64
2022/10/05 09:27:34;;;;;;;5.30;2.97;;;;;;;26.15;54.80;100577.25;4999533;28;20067;-64
2022/10/05 09:30:19;;;;;;;6.03;3.40;;;;;;;26.32;53.91;100572.06;4994992;28;20420;-64
2022/10/05 09:33:17;;;;;;;4.72;2.85;;;;;;;26.65;52.85;100581.81;4994929;28;20026;-64
2022/10/05 09:36:04;;;;;;;4.60;2.83;;;;;;;26.89;52.20;100574.16;4995691;28;20101;-64
2022/10/05 09:38:52;;;;;;;6.80;2.88;;;;;;;26.92;50.81;100572.00;4998364;28;20023;-64
2022/10/05 09:41:44;;;;;;;4.78;2.40;;;;;;;26.88;50.64;100567.84;4996033;28;20037;-64
2022/10/05 09:44:21;;;;;;;5.15;2.65;;;;;;;26.99;51.14;100567.72;4995635;28;20065;-64
2022/10/05 09:47:16;;;;;;;5.55;2.45;;;;;;;27.20;50.40;100546.63;4994990;28;20156;-64
2022/10/05 09:50:16;;;;;;;4.05;2.35;;;;;;;27.38;49.56;100552.25;4997411;28;20068;-64
2022/10/05 09:53:15;;;;;;;4.85;2.40;;;;;;;27.71;50.44;100551.81;5006590;28;20128;-65
2022/10/05 09:55:50;;;;;;;4.53;2.53;;;;;;;27.57;49.79;100544.06;5014696;28;20030;-65
2022/10/05 09:58:52;;;;;;;6.07;2.28;;;;;;;27.61;50.69;100534.56;5018375;28;20033;-65
2022/10/05 10:01:44;;;;;;;7.65;2.53;;;;;;;27.98;50.42;100538.28;5012967;28;20598;-65
2022/10/05 10:04:32;;;;;;;6.57;1.83;;;;;;;28.21;49.21;100536.03;5016090;28;20041;-66
2022/10/05 10:07:09;;;;;;;3.90;2.13;;;;;;;28.12;47.90;100534.22;5012293;28;20025;-65
2022/10/05 10:09:43;;;;;;;3.20;1.60;;;;;;;28.37;48.34;100525.31;5016488;28;20026;-64
2022/10/05 10:12:09;;;;;;;3.10;1.48;;;;;;;28.61;46.95;100520.22;5013532;28;20053;-64
2022/10/05 10:15:08;;;;;;;4.65;2.53;;;;;;;28.77;47.23;100519.53;5011195;28;20193;-65
2022/10/05 10:18:04;;;;;;;3.80;1.80;;;;;;;29.19;48.00;100520.72;5017421;28;20021;-65
2022/10/05 10:20:35;;;;;;;3.03;1.60;;;;;;;29.55;44.11;100517.81;5014375;28;20058;-66
2022/10/05 10:23:15;;;;;;;2.90;1.27;;;;;;;29.80;43.88;100516.16;5012403;28;20029;-65
2022/10/05 10:26:05;;;;;;;4.13;1.48;;;;;;;29.71;44.34;100517.09;5013466;28;20466;-65
2022/10/05 10:29:08;;;;;;;2.78;1.40;;;;;;;29.78;43.22;100523.66;5012631;28;20032;-65
2022/10/05 10:31:45;;;;;;;2.47;1.38;;;;;;;29.13;43.92;100516.72;5012058;28;20093;-65
2022/10/05 10:34:29;;;;;;;3.92;1.48;;;;;;;28.85;44.95;100516.88;5014021;28;20109;-64
2022/10/05 10:37:28;;;;;;;2.00;1.33;;;;;;;28.80;44.62;100520.09;5012992;28;20108;-64
2022/10/05 10:40:03;;;;;;;3.25;1.20;;;;;;;28.96;44.17;100516.69;5014540;28;20025;-64
2022/10/05 10:43:10;;;;;;;2.75;1.45;;;;;;;28.92;44.20;100507.03;5013372;28;20580;-65
2022/10/05 10:45:54;;;;;;;2.45;1.40;;;;;;;28.77;44.45;100509.44;5012173;28;20030;-64
2022/10/05 10:48:29;;;;;;;3.13;1.60;;;;;;;28.92;43.75;100507.03;5013773;28;20041;-64
2022/10/05 10:51:38;;;;;;;4.80;1.52;;;;;;;29.14;44.56;100509.38;5012834;28;20053;-64
2022/10/05 10:54:39;;;;;;;4.72;2.00;;;;;;;29.18;45.11;100517.09;5003210;28;20452;-64
2022/10/05 10:57:15;;;;;;;2.90;1.52;;;;;;;29.42;44.30;100500.03;4999686;28;20806;-65
2022/10/05 11:00:14;;;;;;;4.63;1.30;;;;;;;29.75;44.22;100506.66;5017601;28;20041;-65
2022/10/05 11:03:08;;;;;;;3.80;1.23;;;;;;;29.58;42.27;100506.53;5019027;28;20029;-64
2022/10/05 11:05:45;;;;;;;2.65;1.45;;;;;;;29.13;43.42;100493.91;5016230;28;20813;-65
2022/10/05 11:08:35;;;;;;;2.97;1.52;;;;;;;28.99;44.39;100491.69;5016535;28;20034;-65
2022/10/05 11:11:06;;;;;;;4.32;1.73;;;;;;;29.17;44.49;100496.22;5017118;28;20017;-65
2022/10/05 11:13:51;;;;;;;3.20;1.45;;;;;;;29.49;44.47;100495.63;5017672;28;20425;-65
2022/10/05 11:16:53;;;;;;;4.53;2.00;;;;;;;29.74;43.79;100499.47;5015238;28;20117;-65
2022/10/05 11:19:42;;;;;;;3.17;1.60;;;;;;;29.94;44.00;100490.84;5026207;28;20365;-64
2022/10/05 11:22:24;;;;;;;3.35;1.60;;;;;;;30.06;43.72;100492.31;5017814;28;20437;-64
2022/10/05 11:24:57;;;;;;;3.53;1.40;;;;;;;30.04;42.94;100485.25;5013644;28;20057;-65
2022/10/05 11:27:58;;;;;;;2.60;1.48;;;;;;;29.64;42.83;100483.06;5020266;28;20076;-65
2022/10/05 11:30:49;;;;;;;3.53;1.25;;;;;;;29.19;44.46;100487.84;5014847;28;20125;-65
2022/10/05 11:33:33;;;;;;;4.28;1.33;;;;;;;29.31;43.36;100475.59;5015768;28;20096;-65
2022/10/05 11:36:04;;;;;;;3.80;1.45;;;;;;;29.50;43.48;100487.25;5016027;28;20020;-65
2022/10/05 11:38:38;;;;;;;4.95;1.60;;;;;;;29.53;43.23;100477.84;5017067;28;20128;-65
2022/10/05 11:41:15;;;;;;;3.88;1.50;;;;;;;29.75;43.70;100477.38;5014954;28;20033;-65
2022/10/05 11:44:03;;;;;;;2.15;1.27;;;;;;;29.85;43.46;100480.88;5014170;28;20037;-65
2022/10/05 11:47:07;;;;;;;3.63;1.60;;;;;;;29.73;42.70;100476.66;5018155;28;20041;-65
2022/10/05 11:49:54;;;;;;;4.97;1.60;;;;;;;30.08;42.91;100475.69;5016803;28;20029;-65
2022/10/05 11:52:34;;;;;;;4.47;1.65;;;;;;;30.46;42.53;100469.72;5019848;28;20186;-66
2022/10/05 11:55:02;;;;;;;5.03;2.03;;;;;;;30.64;41.83;100454.84;5018275;28;20481;-65
2022/10/05 11:57:40;;;;;;;5.20;1.63;;;;;;;30.78;41.31;100459.72;5015353;28;20112;-65
2022/10/05 12:00:06;;;;;;;5.00;1.98;;;;;;;30.98;42.07;100460.28;5016312;28;20021;-65
2022/10/05 12:03:02;;;;;;;6.00;2.28;;;;;;;30.80;40.37;100448.56;5015560;28;20472;-66
2022/10/05 12:05:39;;;;;;;4.25;1.80;;;;;;;30.73;41.36;100448.34;5016619;28;20044;-65
2022/10/05 12:08:25;;;;;;;3.17;1.52;;;;;;;30.98;41.73;100437.44;5015398;28;20532;-65
2022/10/05 12:11:29;;;;;;;3.42;1.40;;;;;;;31.03;42.09;100435.91;5019773;28;20037;-65
2022/10/05 12:13:57;;;;;;;3.90;1.48;;;;;;;31.03;42.54;100435.91;4999260;28;20044;-66
2022/10/05 12:16:33;;;;;;;3.28;1.40;;;;;;;31.18;41.55;100436.06;5018580;28;20022;-66
2022/10/05 12:19:35;;;;;;;2.70;1.45;;;;;;;31.24;41.57;100428.00;5015883;28;20135;-66
2022/10/05 12:22:02;;;;;;;3.22;1.42;;;;;;;30.97;41.66;100436.59;5017323;28;20152;-66
2022/10/05 12:24:37;;;;;;;2.67;1.40;;;;;;;30.99;41.43;100418.03;5014043;28;20036;-66
2022/10/05 12:27:14;;;;;;;2.45;1.40;;;;;;;31.12;41.46;100418.38;5016171;28;20026;-66
2022/10/05 12:29:58;;;;;;;3.83;1.30;;;;;;;31.11;41.11;100418.53;5015408;28;20037;-66